createdAt,value
2019-04-06T00:02:23.966Z,105.73
2019-04-06T00:04:53.574Z,75.83
2019-04-06T00:07:23.186Z,92.57
2019-04-06T00:09:53.593Z,102.40
2019-04-06T00:15:12.320Z,85.47
2019-04-06T00:17:41.870Z,91.83
2019-04-06T00:20:12.400Z,92.97
2019-04-06T00:22:42.297Z,95.03
2019-04-06T00:25:12.207Z,84.47
2019-04-06T00:27:44.623Z,93.60
2019-04-06T00:30:14.434Z,101.60
2019-04-06T00:32:51.398Z,87.27
2019-04-06T00:35:21.979Z,89.47
2019-04-06T00:37:51.505Z,83.43
2019-04-06T00:40:24.800Z,75.80
2019-04-06T00:42:54.483Z,98.90
2019-04-06T00:45:25.050Z,98.00
2019-04-06T00:47:54.811Z,102.47
2019-04-06T00:50:25.477Z,86.57
2019-04-06T00:52:55.038Z,82.50
2019-04-06T00:55:26.468Z,107.47
2019-04-06T00:57:56.816Z,81.20
2019-04-06T01:00:33.442Z,73.47
2019-04-06T01:03:03.692Z,99.20
2019-04-06T01:05:35.154Z,88.87
2019-04-06T01:08:05.542Z,104.73
2019-04-06T01:10:36.224Z,107.87
2019-04-06T01:13:06.766Z,106.60
2019-04-06T01:15:39.028Z,108.13
2019-04-06T01:18:08.713Z,103.97
2019-04-06T01:20:38.775Z,97.90
2019-04-06T01:23:08.772Z,103.40
2019-04-06T01:25:39.062Z,101.40
2019-04-06T01:28:09.972Z,99.93
2019-04-06T01:30:40.346Z,97.63
2019-04-06T01:33:11.113Z,91.37
2019-04-06T01:35:41.549Z,97.50
2019-04-06T01:38:11.471Z,114.13
2019-04-06T01:40:41.932Z,100.90
2019-04-06T01:43:11.471Z,101.43
2019-04-06T01:45:41.365Z,105.03
2019-04-06T01:48:11.560Z,108.30
2019-04-06T01:50:41.669Z,119.60
2019-04-06T01:53:13.084Z,114.37
2019-04-06T01:55:47.630Z,100.73
2019-04-06T01:58:17.170Z,111.37
2019-04-06T02:01:05.433Z,115.57
2019-04-06T02:03:35.286Z,100.87
2019-04-06T02:06:05.878Z,110.67
2019-04-06T02:08:37.538Z,103.83
2019-04-06T02:11:07.599Z,117.97
2019-04-06T02:13:37.160Z,92.37
2019-04-06T02:16:07.911Z,133.97
2019-04-06T02:18:37.719Z,104.27
2019-04-06T02:21:07.190Z,125.10
2019-04-06T02:23:39.324Z,118.53
2019-04-06T02:26:08.889Z,129.77
2019-04-06T02:28:41.762Z,110.33
2019-04-06T02:31:34.999Z,112.80
2019-04-06T02:34:17.190Z,102.47
2019-04-06T02:37:07.887Z,113.07
2019-04-06T02:39:47.840Z,112.57
2019-04-06T02:42:20.667Z,104.33
2019-04-06T02:44:50.717Z,110.77
2019-04-06T02:47:21.887Z,110.60
2019-04-06T02:49:51.353Z,114.53
2019-04-06T02:52:22.623Z,123.90
2019-04-06T02:54:52.794Z,134.87
2019-04-06T02:57:23.558Z,114.50
2019-04-06T02:59:54.469Z,120.23
2019-04-06T03:02:24.361Z,114.90
2019-04-06T03:04:53.837Z,110.07
2019-04-06T03:07:23.714Z,111.23
2019-04-06T03:09:54.284Z,125.67
2019-04-06T03:12:24.206Z,123.80
2019-04-06T03:14:53.645Z,152.10
2019-04-06T03:17:23.988Z,107.37
2019-04-06T03:19:54.790Z,133.73
2019-04-06T03:22:24.342Z,126.77
2019-04-06T03:24:54.963Z,133.13
2019-04-06T03:27:30.468Z,119.30
2019-04-06T03:30:00.470Z,115.47
2019-04-06T03:32:30.581Z,141.93
2019-04-06T03:35:01.377Z,146.03
2019-04-06T03:37:31.297Z,133.10
2019-04-06T03:40:00.845Z,131.77
2019-04-06T03:42:30.313Z,141.27
2019-04-06T03:44:59.663Z,181.47
2019-04-06T03:47:29.372Z,129.30
2019-04-06T03:50:00.292Z,133.00
2019-04-06T03:52:29.852Z,133.40
2019-04-06T03:55:00.324Z,133.60
2019-04-06T03:57:33.057Z,166.47
2019-04-06T04:00:02.454Z,149.23
2019-04-06T04:02:32.432Z,152.30
2019-04-06T04:05:01.906Z,151.37
2019-04-06T04:07:31.792Z,166.47
2019-04-06T04:10:01.400Z,141.93
2019-04-06T04:12:33.708Z,155.40
2019-04-06T04:15:04.211Z,138.37
2019-04-06T04:17:34.830Z,133.83
2019-04-06T04:20:04.900Z,153.10
2019-04-06T04:22:35.544Z,157.10
2019-04-06T04:25:06.290Z,139.30
2019-04-06T04:27:40.884Z,198.93
2019-04-06T04:30:10.521Z,127.20
2019-04-06T04:32:40.741Z,152.13
2019-04-06T04:35:11.762Z,143.43
2019-04-06T04:37:43.215Z,157.80
2019-04-06T04:40:12.756Z,149.50
2019-04-06T04:42:45.264Z,145.60
2019-04-06T04:45:14.950Z,149.13
2019-04-06T04:47:49.934Z,151.37
2019-04-06T04:50:20.308Z,157.67
2019-04-06T04:52:50.919Z,147.57
2019-04-06T04:55:20.959Z,154.47
2019-04-06T04:57:50.968Z,159.70
2019-04-06T05:00:20.479Z,189.27
2019-04-06T05:02:50.418Z,161.33
2019-04-06T05:05:21.270Z,176.10
2019-04-06T05:07:51.148Z,167.93
2019-04-06T05:10:20.731Z,149.97
2019-04-06T05:12:51.351Z,182.90
2019-04-06T05:15:31.223Z,163.83
2019-04-06T05:18:02.296Z,168.83
2019-04-06T05:20:33.042Z,176.43
2019-04-06T05:23:04.334Z,163.87
2019-04-06T05:25:34.219Z,161.97
2019-04-06T05:28:04.278Z,215.93
2019-04-06T05:30:33.693Z,194.07
2019-04-06T05:33:03.959Z,187.70
2019-04-06T05:35:34.178Z,222.23
2019-04-06T05:38:04.052Z,203.63
2019-04-06T05:40:34.019Z,215.43
2019-04-06T05:43:04.588Z,151.03
2019-04-06T05:45:36.038Z,164.80
2019-04-06T05:48:07.364Z,193.40
2019-04-06T05:50:45.854Z,204.17
2019-04-06T05:53:18.608Z,194.20
2019-04-06T05:55:53.855Z,227.00
2019-04-06T05:58:26.510Z,200.77
2019-04-06T06:00:56.972Z,178.33
2019-04-06T06:03:27.040Z,186.87
2019-04-06T06:06:03.880Z,197.33
2019-04-06T06:08:34.869Z,210.27
2019-04-06T06:11:06.764Z,166.47
2019-04-06T06:13:39.648Z,185.87
2019-04-06T06:16:12.043Z,187.87
2019-04-06T06:18:43.494Z,173.90
2019-04-06T06:21:13.419Z,196.17
2019-04-06T06:23:44.310Z,217.27
2019-04-06T06:26:15.922Z,208.77
2019-04-06T06:28:47.716Z,197.00
2019-04-06T06:31:20.783Z,216.67
2019-04-06T06:33:54.296Z,175.70
2019-04-06T06:36:27.352Z,189.60
2019-04-06T06:38:59.077Z,212.47
2019-04-06T06:41:28.862Z,193.07
2019-04-06T06:43:58.886Z,213.67
2019-04-06T06:46:28.994Z,194.50
2019-04-06T06:48:59.661Z,195.37
2019-04-06T06:51:29.312Z,167.90
2019-04-06T06:53:58.908Z,166.67
2019-04-06T06:56:28.683Z,161.80
2019-04-06T06:58:58.346Z,145.57
2019-04-06T07:01:30.305Z,149.30
2019-04-06T07:04:02.607Z,155.53
2019-04-06T07:06:34.382Z,151.50
2019-04-06T07:09:05.750Z,151.50
2019-04-06T07:11:37.916Z,137.27
2019-04-06T07:14:09.424Z,176.23
2019-04-06T07:16:40.475Z,135.20
2019-04-06T07:19:11.813Z,168.67
2019-04-06T07:21:43.171Z,153.00
2019-04-06T07:24:14.992Z,165.13
2019-04-06T07:26:53.162Z,156.80
2019-04-06T07:29:47.707Z,170.30
2019-04-06T07:32:28.718Z,160.23
2019-04-06T07:35:13.011Z,160.93
2019-04-06T07:38:37.886Z,172.60
2019-04-06T07:41:09.057Z,149.67
2019-04-06T07:44:02.015Z,169.70
2019-04-06T07:46:52.716Z,141.93
2019-04-06T07:53:59.617Z,146.33
2019-04-06T07:59:55.357Z,144.37
2019-04-06T09:56:17.382Z,107.10
2019-04-06T09:59:49.078Z,117.90
2019-04-06T10:03:28.014Z,84.07
2019-04-06T10:06:45.510Z,138.77
2019-04-06T10:37:42.863Z,100.73
2019-04-06T10:40:39.403Z,103.43
2019-04-06T10:43:37.285Z,102.33
2019-04-06T10:46:34.957Z,95.63
2019-04-06T10:49:24.685Z,115.43
2019-04-06T11:10:16.703Z,93.30
2019-04-06T11:13:09.642Z,89.17
2019-04-06T11:16:04.797Z,95.87
2019-04-06T11:18:53.326Z,90.30
2019-04-06T11:21:51.609Z,96.00
2019-04-06T11:24:41.505Z,84.43
2019-04-06T11:27:31.455Z,103.87
2019-04-06T11:30:13.724Z,91.60
2019-04-06T11:32:56.465Z,86.27
2019-04-06T11:35:57.249Z,89.80
2019-04-06T11:38:54.925Z,106.70
2019-04-06T11:41:49.335Z,83.03
2019-04-06T11:44:41.070Z,88.50
2019-04-06T11:47:28.289Z,112.13
2019-04-06T11:50:45.569Z,105.33
2019-04-06T11:53:39.901Z,99.60
2019-04-06T11:56:38.280Z,80.93
2019-04-06T11:59:15.420Z,84.63
2019-04-06T12:02:18.958Z,106.90
2019-04-06T12:04:59.200Z,87.47
2019-04-06T12:07:41.163Z,80.87
2019-04-06T12:10:28.625Z,100.00
2019-04-06T12:13:19.938Z,76.80
2019-04-06T12:16:11.428Z,84.60
2019-04-06T12:18:56.171Z,77.13
2019-04-06T12:21:36.817Z,84.20
2019-04-06T12:24:40.438Z,88.13
2019-04-06T12:27:28.863Z,87.93
2019-04-06T12:30:24.558Z,90.47
2019-04-06T12:33:13.012Z,87.77
2019-04-06T12:36:16.730Z,76.50
2019-04-06T12:39:13.159Z,80.43
2019-04-06T12:42:01.755Z,78.40
2019-04-06T12:44:54.619Z,76.00
2019-04-06T12:47:59.135Z,82.77
2019-04-06T12:50:47.158Z,103.60
2019-04-06T12:53:36.421Z,97.83
2019-04-06T12:56:16.333Z,91.50
2019-04-06T12:58:58.190Z,89.70
2019-04-06T13:01:37.148Z,90.10
2019-04-06T13:04:24.674Z,99.40
2019-04-06T13:07:13.006Z,84.40
2019-04-06T13:10:08.741Z,78.70
2019-04-06T13:12:58.483Z,110.63
2019-04-06T13:15:46.881Z,86.03
2019-04-06T13:18:34.771Z,87.43
2019-04-06T13:21:31.134Z,88.40
2019-04-06T13:24:19.491Z,76.10
2019-04-06T13:27:08.678Z,93.93
2019-04-06T13:29:57.125Z,79.33
2019-04-06T13:32:36.567Z,77.33
2019-04-06T13:35:25.282Z,79.83
2019-04-06T13:38:02.534Z,92.47
2019-04-06T13:47:16.233Z,62.57
2019-04-06T13:50:02.229Z,71.10
2019-04-06T13:52:51.484Z,68.90
2019-04-06T13:59:22.996Z,66.87
2019-04-06T14:02:14.279Z,60.03
2019-04-06T14:04:59.651Z,70.17
2019-04-06T14:07:47.813Z,57.20
2019-04-06T14:10:27.800Z,75.33
2019-04-06T14:13:23.566Z,58.03
2019-04-06T14:16:17.801Z,63.47
2019-04-06T14:19:24.466Z,63.73
2019-04-06T14:22:15.421Z,54.23
2019-04-06T14:25:03.832Z,55.67
2019-04-06T14:27:48.415Z,52.57
2019-04-06T14:30:36.909Z,58.10
2019-04-06T14:40:51.293Z,41.57
2019-04-06T14:43:45.838Z,48.77
2019-04-06T14:46:34.144Z,48.10
2019-04-06T14:49:30.208Z,59.90
2019-04-06T14:52:14.109Z,53.57
2019-04-06T14:55:00.052Z,44.63
2019-04-06T14:57:39.649Z,43.00
2019-04-06T15:00:40.930Z,44.43
2019-04-06T15:03:47.913Z,40.03
2019-04-06T15:12:45.655Z,38.47
2019-04-06T15:16:12.218Z,38.33
2019-04-06T15:19:06.582Z,38.50
2019-04-06T15:22:14.761Z,35.33
2019-04-06T15:25:04.154Z,38.17
2019-04-06T15:27:50.140Z,34.90
2019-04-06T15:30:39.655Z,50.23
2019-04-06T15:33:44.083Z,45.70
2019-04-06T15:36:35.512Z,53.80
2019-04-06T15:39:25.344Z,63.57
2019-04-06T15:42:15.168Z,46.33
2019-04-06T15:48:37.409Z,43.90
2019-04-06T15:51:25.629Z,54.50
2019-04-06T16:22:06.939Z,58.63
2019-04-06T16:25:03.495Z,59.10
2019-04-06T16:27:56.006Z,66.17
2019-04-06T16:33:15.091Z,66.15
2019-04-06T16:36:19.886Z,45.50
2019-04-06T16:39:08.202Z,67.40
2019-04-06T16:42:10.812Z,54.00
2019-04-06T16:45:03.876Z,54.90
2019-04-06T16:47:47.901Z,49.03
2019-04-06T16:50:42.312Z,52.43
2019-04-06T16:53:31.833Z,57.30
2019-04-06T16:56:10.748Z,66.67
2019-04-06T16:58:59.984Z,57.33
2019-04-06T17:01:49.565Z,46.73
2019-04-06T17:04:38.504Z,55.87
2019-04-06T17:07:26.321Z,53.47
2019-04-06T17:10:18.467Z,47.13
2019-04-06T17:13:18.996Z,55.03
2019-04-06T17:15:57.801Z,46.83
2019-04-06T17:18:53.367Z,50.70
2019-04-06T17:21:44.883Z,61.23
2019-04-06T17:24:30.787Z,54.30
2019-04-06T17:27:42.050Z,59.80
2019-04-06T17:31:16.273Z,58.00
2019-04-06T17:34:12.406Z,53.83
2019-04-06T17:36:51.649Z,50.30
2019-04-06T17:39:45.133Z,53.30
2019-04-06T17:42:34.103Z,61.93
2019-04-06T17:45:42.601Z,45.20
2019-04-06T17:48:33.960Z,58.93
2019-04-06T17:51:34.695Z,60.67
2019-04-06T17:54:29.889Z,60.83
2019-04-06T17:57:30.079Z,65.87
2019-04-06T18:00:28.151Z,56.43
2019-04-06T18:03:23.621Z,49.73
2019-04-06T18:06:22.237Z,56.20
2019-04-06T18:09:09.850Z,64.53
2019-04-06T18:12:06.163Z,64.37
2019-04-06T18:14:41.299Z,52.93
2019-04-06T18:17:12.937Z,64.07
2019-04-06T18:19:48.293Z,62.10
2019-04-06T18:22:19.333Z,65.33
2019-04-06T18:24:54.073Z,69.37
2019-04-06T18:27:28.503Z,57.07
2019-04-06T18:30:09.337Z,68.27
2019-04-06T18:33:00.717Z,74.03
2019-04-06T18:35:28.232Z,67.30
2019-04-06T18:38:32.267Z,74.40
2019-04-06T18:41:02.374Z,55.20
2019-04-06T18:43:32.477Z,57.27
2019-04-06T18:46:02.524Z,57.57
2019-04-06T18:48:32.883Z,65.17
2019-04-06T18:51:03.404Z,52.60
2019-04-06T18:53:33.502Z,63.43
2019-04-06T18:56:04.097Z,71.67
2019-04-06T18:58:34.297Z,59.47
2019-04-06T19:01:04.525Z,59.70
2019-04-06T19:03:35.639Z,58.50
2019-04-06T19:06:06.428Z,58.70
2019-04-06T19:08:36.562Z,53.37
2019-04-06T19:11:06.976Z,60.20
2019-04-06T19:13:40.079Z,66.13
2019-04-06T19:16:10.370Z,69.50
2019-04-06T19:18:40.366Z,56.60
2019-04-06T19:21:10.476Z,50.33
2019-04-06T19:23:41.404Z,71.77
2019-04-06T19:26:11.418Z,59.93
2019-04-06T19:28:41.342Z,67.30
2019-04-06T19:31:12.512Z,56.77
2019-04-06T19:33:43.132Z,61.30
2019-04-06T19:36:13.364Z,61.63
2019-04-06T19:38:43.843Z,49.50
2019-04-06T19:41:21.818Z,63.43
2019-04-06T19:43:54.408Z,72.30
2019-04-06T19:46:24.743Z,58.80
2019-04-06T19:48:54.890Z,67.20
2019-04-06T19:51:25.072Z,63.40
2019-04-06T19:53:55.166Z,69.73
2019-04-06T19:56:25.191Z,80.63
2019-04-06T19:58:57.461Z,72.97
2019-04-06T20:01:28.847Z,79.77
2019-04-06T20:04:00.136Z,76.70
2019-04-06T20:06:30.719Z,83.03
2019-04-06T20:09:03.038Z,80.23
2019-04-06T20:11:35.005Z,82.83
2019-04-06T20:14:06.174Z,75.10
2019-04-06T20:16:37.266Z,73.20
2019-04-06T20:19:07.881Z,97.57
2019-04-06T20:21:43.243Z,74.10
2019-04-06T20:24:17.159Z,82.53
2019-04-06T20:26:48.350Z,70.77
2019-04-06T20:29:22.120Z,94.07
2019-04-06T20:31:52.240Z,87.13
2019-04-06T20:34:24.244Z,88.77
2019-04-06T20:37:00.289Z,87.10
2019-04-06T20:39:33.422Z,67.80
2019-04-06T20:42:03.098Z,96.47
2019-04-06T20:44:37.054Z,74.27
2019-04-06T20:47:16.808Z,74.43
2019-04-06T20:50:21.633Z,84.30
2019-04-06T20:53:28.956Z,92.67
2019-04-06T20:56:11.883Z,88.33
2019-04-06T20:58:52.195Z,78.50
2019-04-06T21:01:26.550Z,87.83
2019-04-06T21:04:04.290Z,96.37
2019-04-06T21:06:41.580Z,89.13
2019-04-06T21:09:14.360Z,102.80
2019-04-06T21:12:22.681Z,93.23
2019-04-06T21:15:17.659Z,83.97
2019-04-06T21:17:43.670Z,69.17
2019-04-06T21:27:15.074Z,80.40
2019-04-06T21:29:50.756Z,93.50
2019-04-06T21:32:52.596Z,89.57
2019-04-06T21:35:36.863Z,79.60
2019-04-06T21:38:36.757Z,97.87
2019-04-06T21:41:39.621Z,97.73
2019-04-06T21:44:49.574Z,91.27
2019-04-06T21:48:07.007Z,77.03
2019-04-06T21:51:16.920Z,80.47
2019-04-06T21:58:38.105Z,83.10
2019-04-06T22:02:28.618Z,84.43
2019-04-06T22:12:45.951Z,91.40
2019-04-06T22:23:20.958Z,89.50
2019-04-06T22:26:40.972Z,96.93
2019-04-06T22:32:44.973Z,132.57
2019-04-06T22:35:24.778Z,94.90
2019-04-06T22:38:01.130Z,111.93
2019-04-06T22:40:39.756Z,100.20
2019-04-06T22:43:20.602Z,110.97
2019-04-06T22:45:59.021Z,121.97
2019-04-06T22:55:51.535Z,114.53
2019-04-06T22:58:27.976Z,115.37
2019-04-06T23:01:08.659Z,121.47
2019-04-06T23:04:07.840Z,110.83
2019-04-06T23:06:50.169Z,115.07
2019-04-06T23:09:22.495Z,115.17
2019-04-06T23:11:55.886Z,137.43
2019-04-06T23:14:33.899Z,125.30
2019-04-06T23:17:07.576Z,116.80
2019-04-06T23:19:37.637Z,108.73
2019-04-06T23:22:10.355Z,128.03
2019-04-06T23:24:41.995Z,132.20
2019-04-06T23:27:12.105Z,115.40
2019-04-06T23:29:43.987Z,100.00
2019-04-06T23:32:14.802Z,113.87
2019-04-06T23:34:58.321Z,111.27
2019-04-06T23:37:20.448Z,90.97
2019-04-06T23:39:51.962Z,93.03
2019-04-06T23:42:22.755Z,112.17
2019-04-06T23:44:54.391Z,118.83
2019-04-06T23:47:25.888Z,97.07
2019-04-06T23:49:57.492Z,99.67
2019-04-06T23:52:28.080Z,103.20
2019-04-06T23:54:57.970Z,93.20
2019-04-06T23:57:30.282Z,120.03
